Time,TemperatureF,DewpointF,PressureIn,WindDirection,WindDirectionDegrees,WindSpeedMPH,WindSpeedGustMPH,Humidity,HourlyPrecipIn,Conditions,Clouds,dailyrainin,SoftwareType,DateUTC
2013-12-18 00:02:00,57.6,53.1,30.22,NNW,336,2.0,6.0,85,0.00,,,0.00,Wunderground v.1.13,2013-12-18 05:02:00,
2013-12-18 00:04:00,57.6,53.1,30.22,NNW,344,2.0,6.0,85,0.00,,,0.00,Wunderground v.1.13,2013-12-18 05:04:00,
2013-12-18 00:06:00,57.5,53.3,30.22,NNW,345,2.0,2.0,86,0.00,,,0.00,Wunderground v.1.13,2013-12-18 05:06:00,
2013-12-18 00:08:00,57.5,53.3,30.22,NNW,348,2.0,2.0,86,0.00,,,0.00,Wunderground v.1.13,2013-12-18 05:08:00,
2013-12-18 00:14:00,57.4,53.2,30.22,NE,46,2.0,2.0,86,0.00,,,0.00,Wunderground v.1.13,2013-12-18 05:14:00,
2013-12-18 00:20:00,57.2,53.4,30.22,NE,44,1.0,7.0,87,0.00,,,0.00,Wunderground v.1.13,2013-12-18 05:20:00,
2013-12-18 00:26:00,57.1,53.3,30.21,NE,44,1.0,2.0,87,0.00,,,0.00,Wunderground v.1.13,2013-12-18 05:26:00,
2013-12-18 00:32:00,56.9,53.1,30.21,NNW,348,1.0,7.0,87,0.00,,,0.00,Wunderground v.1.13,2013-12-18 05:32:00,
2013-12-18 00:38:00,56.8,53.0,30.21,North,355,1.0,7.0,87,0.00,,,0.00,Wunderground v.1.13,2013-12-18 05:38:00,
2013-12-18 00:44:00,56.6,52.8,30.21,North,355,1.0,7.0,87,0.00,,,0.00,Wunderground v.1.13,2013-12-18 05:44:00,
2013-12-18 00:50:00,56.4,52.9,30.21,North,355,0.0,7.0,88,0.00,,,0.00,Wunderground v.1.13,2013-12-18 05:50:00,
2013-12-18 00:56:00,56.3,52.8,30.21,North,355,0.0,7.0,88,0.00,,,0.00,Wunderground v.1.13,2013-12-18 05:56:00,
2013-12-18 01:02:00,56.0,52.5,30.21,North,355,0.0,7.0,88,0.00,,,0.00,Wunderground v.1.13,2013-12-18 06:02:00,
2013-12-18 01:08:00,55.8,52.3,30.21,North,355,0.0,0.0,88,0.00,,,0.00,Wunderground v.1.13,2013-12-18 06:08:00,
2013-12-18 01:14:00,55.6,52.4,30.21,North,355,0.0,0.0,89,0.00,,,0.00,Wunderground v.1.13,2013-12-18 06:14:00,
2013-12-18 01:20:00,55.5,52.3,30.21,North,355,0.0,1.0,89,0.00,,,0.00,Wunderground v.1.13,2013-12-18 06:20:00,
2013-12-18 01:26:00,55.3,52.1,30.21,North,355,0.0,1.0,89,0.00,,,0.00,Wunderground v.1.13,2013-12-18 06:26:00,
2013-12-18 01:32:00,55.2,52.0,30.21,North,355,0.0,1.0,89,0.00,,,0.00,Wunderground v.1.13,2013-12-18 06:32:00,
2013-12-18 01:38:00,55.1,51.9,30.22,North,355,0.0,1.0,89,0.00,,,0.00,Wunderground v.1.13,2013-12-18 06:38:00,
2013-12-18 01:44:00,54.9,52.0,30.21,North,355,0.0,1.0,90,0.00,,,0.00,Wunderground v.1.13,2013-12-18 06:44:00,
2013-12-18 01:50:00,54.8,51.9,30.22,NNE,14,1.0,1.0,90,0.00,,,0.00,Wunderground v.1.13,2013-12-18 06:50:00,
2013-12-18 01:56:00,54.8,51.9,30.22,NNE,14,1.0,1.0,90,0.00,,,0.00,Wunderground v.1.13,2013-12-18 06:56:00,
2013-12-18 02:02:00,54.7,51.8,30.22,NNE,14,0.0,1.0,90,0.00,,,0.00,Wunderground v.1.13,2013-12-18 07:02:00,
2013-12-18 02:08:00,54.6,51.7,30.22,NNE,14,1.0,1.0,90,0.00,,,0.00,Wunderground v.1.13,2013-12-18 07:08:00,
2013-12-18 02:14:00,54.5,51.6,30.21,NNE,14,1.0,1.0,90,0.00,,,0.00,Wunderground v.1.13,2013-12-18 07:14:00,
2013-12-18 02:20:00,54.4,51.8,30.21,NNE,14,1.0,3.0,91,0.00,,,0.00,Wunderground v.1.13,2013-12-18 07:20:00,
2013-12-18 02:26:00,54.4,51.8,30.21,NNE,14,0.0,3.0,91,0.00,,,0.00,Wunderground v.1.13,2013-12-18 07:26:00,
2013-12-18 02:32:00,54.1,51.2,30.21,NNE,14,0.0,3.0,90,0.00,,,0.00,Wunderground v.1.13,2013-12-18 07:32:00,
2013-12-18 02:38:00,53.8,51.2,30.21,NNE,14,0.0,3.0,91,0.00,,,0.00,Wunderground v.1.13,2013-12-18 07:38:00,
2013-12-18 02:44:00,53.3,50.4,30.21,NNE,14,1.0,3.0,90,0.00,,,0.00,Wunderground v.1.13,2013-12-18 07:44:00,
2013-12-18 02:50:00,53.2,50.9,30.21,NNE,14,1.0,3.0,92,0.00,,,0.00,Wunderground v.1.13,2013-12-18 07:50:00,
2013-12-18 02:56:00,53.4,51.1,30.21,NW,323,2.0,3.0,92,0.00,,,0.00,Wunderground v.1.13,2013-12-18 07:56:00,
2013-12-18 03:02:00,54.2,51.6,30.21,NNW,335,3.0,5.0,91,0.00,,,0.00,Wunderground v.1.13,2013-12-18 08:02:00,
2013-12-18 03:08:00,55.2,52.0,30.21,NNW,343,4.0,5.0,89,0.00,,,0.00,Wunderground v.1.13,2013-12-18 08:08:00,
2013-12-18 03:14:00,55.7,52.2,30.21,NNW,346,4.0,5.0,88,0.00,,,0.00,Wunderground v.1.13,2013-12-18 08:14:00,
2013-12-18 03:20:00,56.1,52.3,30.21,NNW,329,4.0,5.0,87,0.00,,,0.00,Wunderground v.1.13,2013-12-18 08:20:00,
2013-12-18 03:26:00,56.2,52.4,30.21,NNW,329,3.0,4.0,87,0.00,,,0.00,Wunderground v.1.13,2013-12-18 08:26:00,
2013-12-18 03:32:00,56.3,52.5,30.21,NNW,347,2.0,3.0,87,0.00,,,0.00,Wunderground v.1.13,2013-12-18 08:32:00,
2013-12-18 03:38:00,56.2,52.1,30.21,NE,34,2.0,3.0,86,0.00,,,0.00,Wunderground v.1.13,2013-12-18 08:38:00,
2013-12-18 03:44:00,56.2,52.1,30.21,North,360,2.0,3.0,86,0.00,,,0.00,Wunderground v.1.13,2013-12-18 08:44:00,
2013-12-18 03:50:00,56.2,52.1,30.21,North,5,2.0,3.0,86,0.00,,,0.00,Wunderground v.1.13,2013-12-18 08:50:00,
2013-12-18 03:56:00,56.0,51.9,30.21,North,355,2.0,3.0,86,0.00,,,0.00,Wunderground v.1.13,2013-12-18 08:56:00,
2013-12-18 04:02:00,55.9,51.8,30.21,North,355,1.0,3.0,86,0.00,,,0.00,Wunderground v.1.13,2013-12-18 09:02:00,
2013-12-18 04:08:00,55.8,51.7,30.21,NNW,343,1.0,3.0,86,0.00,,,0.00,Wunderground v.1.13,2013-12-18 09:08:00,
2013-12-18 04:14:00,55.7,51.6,30.21,NNW,343,2.0,2.0,86,0.00,,,0.00,Wunderground v.1.13,2013-12-18 09:14:00,
2013-12-18 04:20:00,55.6,51.2,30.21,NNW,348,2.0,5.0,85,0.00,,,0.00,Wunderground v.1.13,2013-12-18 09:20:00,
2013-12-18 04:26:00,55.5,51.1,30.21,NNW,333,2.0,5.0,85,0.00,,,0.00,Wunderground v.1.13,2013-12-18 09:26:00,
2013-12-18 04:32:00,55.6,51.2,30.21,NNW,339,2.0,5.0,85,0.00,,,0.00,Wunderground v.1.13,2013-12-18 09:32:00,
2013-12-18 04:38:00,55.7,51.3,30.21,NNW,342,2.0,3.0,85,0.00,,,0.00,Wunderground v.1.13,2013-12-18 09:38:00,
2013-12-18 04:44:00,55.6,51.5,30.21,NE,44,2.0,5.0,86,0.00,,,0.00,Wunderground v.1.13,2013-12-18 09:44:00,
2013-12-18 04:50:00,55.6,51.5,30.21,North,360,2.0,5.0,86,0.00,,,0.00,Wunderground v.1.13,2013-12-18 09:50:00,
2013-12-18 04:56:00,55.6,51.8,30.22,NNE,23,2.0,5.0,87,0.00,,,0.00,Wunderground v.1.13,2013-12-18 09:56:00,
2013-12-18 05:02:00,55.5,52.0,30.21,NE,51,1.0,5.0,88,0.00,,,0.00,Wunderground v.1.13,2013-12-18 10:02:00,
2013-12-18 05:08:00,55.3,51.8,30.21,NE,38,1.0,3.0,88,0.00,,,0.00,Wunderground v.1.13,2013-12-18 10:08:00,
2013-12-18 05:14:00,55.3,52.1,30.21,NE,38,2.0,3.0,89,0.00,,,0.00,Wunderground v.1.13,2013-12-18 10:14:00,
2013-12-18 05:20:00,55.1,51.9,30.21,NNE,28,2.0,6.0,89,0.00,,,0.00,Wunderground v.1.13,2013-12-18 10:20:00,
2013-12-18 05:26:00,55.0,51.8,30.22,North,5,2.0,6.0,89,0.00,,,0.00,Wunderground v.1.13,2013-12-18 10:26:00,
2013-12-18 05:32:00,54.8,51.9,30.22,North,5,2.0,6.0,90,0.00,,,0.00,Wunderground v.1.13,2013-12-18 10:32:00,
2013-12-18 05:38:00,54.8,51.9,30.22,North,5,2.0,6.0,90,0.00,,,0.00,Wunderground v.1.13,2013-12-18 10:38:00,
2013-12-18 05:44:00,54.7,51.8,30.22,North,5,1.0,6.0,90,0.00,,,0.00,Wunderground v.1.13,2013-12-18 10:44:00,
2013-12-18 05:50:00,54.7,52.1,30.22,North,5,0.0,6.0,91,0.00,,,0.00,Wunderground v.1.13,2013-12-18 10:50:00,
2013-12-18 05:56:00,54.6,52.0,30.22,North,9,0.0,6.0,91,0.00,,,0.00,Wunderground v.1.13,2013-12-18 10:56:00,
2013-12-18 06:02:00,54.4,51.8,30.23,North,9,0.0,6.0,91,0.00,,,0.00,Wunderground v.1.13,2013-12-18 11:02:00,
2013-12-18 06:08:00,54.2,51.9,30.23,North,9,0.0,0.0,92,0.00,,,0.00,Wunderground v.1.13,2013-12-18 11:08:00,
2013-12-18 06:14:00,54.1,51.8,30.23,North,9,0.0,0.0,92,0.00,,,0.00,Wunderground v.1.13,2013-12-18 11:14:00,
2013-12-18 06:20:00,54.0,52.0,30.23,North,9,0.0,2.0,93,0.00,,,0.00,Wunderground v.1.13,2013-12-18 11:20:00,
2013-12-18 06:24:00,54.0,52.0,30.23,NNE,30,0.0,2.0,93,0.00,,,0.00,Wunderground v.1.13,2013-12-18 11:24:00,
2013-12-18 06:30:00,54.0,51.7,30.23,NNW,340,1.0,3.0,92,0.00,,,0.00,Wunderground v.1.13,2013-12-18 11:30:00,
2013-12-18 06:36:00,54.1,51.8,30.24,NNE,14,2.0,2.0,92,0.00,,,0.00,Wunderground v.1.13,2013-12-18 11:36:00,
2013-12-18 06:42:00,54.2,51.9,30.24,NE,38,2.0,2.0,92,0.00,,,0.00,Wunderground v.1.13,2013-12-18 11:42:00,
2013-12-18 06:48:00,54.2,51.9,30.24,NE,38,1.0,2.0,92,0.00,,,0.00,Wunderground v.1.13,2013-12-18 11:48:00,
2013-12-18 06:54:00,54.4,52.1,30.24,NNE,28,2.0,3.0,92,0.00,,,0.00,Wunderground v.1.13,2013-12-18 11:54:00,
2013-12-18 07:00:00,54.7,52.4,30.25,NNE,13,2.0,4.0,92,0.00,,,0.00,Wunderground v.1.13,2013-12-18 12:00:00,
2013-12-18 07:06:00,54.8,52.2,30.25,North,5,2.0,3.0,91,0.00,,,0.00,Wunderground v.1.13,2013-12-18 12:06:00,
2013-12-18 07:12:00,54.8,52.2,30.25,North,5,2.0,3.0,91,0.00,,,0.00,Wunderground v.1.13,2013-12-18 12:12:00,
2013-12-18 07:18:00,54.6,52.0,30.25,NNW,347,2.0,6.0,91,0.00,,,0.00,Wunderground v.1.13,2013-12-18 12:18:00,
2013-12-18 07:24:00,54.4,51.8,30.25,North,9,3.0,3.0,91,0.00,,,0.00,Wunderground v.1.13,2013-12-18 12:24:00,
2013-12-18 07:30:00,54.3,51.7,30.26,NNE,28,2.0,6.0,91,0.00,,,0.00,Wunderground v.1.13,2013-12-18 12:30:00,
2013-12-18 07:36:00,54.5,52.2,30.26,NE,53,3.0,6.0,92,0.00,,,0.00,Wunderground v.1.13,2013-12-18 12:36:00,
2013-12-18 07:42:00,54.8,52.2,30.26,NNE,33,4.0,6.0,91,0.00,,,0.00,Wunderground v.1.13,2013-12-18 12:42:00,
2013-12-18 07:48:00,54.9,52.3,30.26,NNE,30,4.0,4.0,91,0.00,,,0.00,Wunderground v.1.13,2013-12-18 12:48:00,
2013-12-18 07:54:00,55.2,52.6,30.27,NE,40,4.0,4.0,91,0.00,,,0.00,Wunderground v.1.13,2013-12-18 12:54:00,
2013-12-18 08:00:00,55.5,52.9,30.27,NNE,33,4.0,4.0,91,0.00,,,0.00,Wunderground v.1.13,2013-12-18 13:00:00,
2013-12-18 08:06:00,55.7,52.8,30.27,NNE,21,4.0,4.0,90,0.00,,,0.00,Wunderground v.1.13,2013-12-18 13:06:00,
2013-12-18 08:12:00,55.8,52.9,30.27,North,5,4.0,7.0,90,0.00,,,0.00,Wunderground v.1.13,2013-12-18 13:12:00,
2013-12-18 08:18:00,55.9,52.7,30.27,North,350,3.0,10.0,89,0.00,,,0.00,Wunderground v.1.13,2013-12-18 13:18:00,
2013-12-18 08:24:00,56.0,52.8,30.27,NE,53,3.0,10.0,89,0.00,,,0.00,Wunderground v.1.13,2013-12-18 13:24:00,
2013-12-18 08:30:00,56.2,52.7,30.27,NNW,343,3.0,10.0,88,0.00,,,0.00,Wunderground v.1.13,2013-12-18 13:30:00,
2013-12-18 08:36:00,56.4,52.9,30.27,NNW,346,3.0,10.0,88,0.00,,,0.00,Wunderground v.1.13,2013-12-18 13:36:00,
2013-12-18 08:42:00,56.5,52.7,30.27,NNE,24,3.0,3.0,87,0.00,,,0.00,Wunderground v.1.13,2013-12-18 13:42:00,
2013-12-18 08:48:00,56.6,52.8,30.27,North,11,3.0,10.0,87,0.00,,,0.00,Wunderground v.1.13,2013-12-18 13:48:00,
2013-12-18 08:54:00,57.0,53.2,30.28,NNW,329,3.0,10.0,87,0.00,,,0.00,Wunderground v.1.13,2013-12-18 13:54:00,
2013-12-18 09:00:00,57.4,53.2,30.28,NE,36,4.0,4.0,86,0.00,,,0.00,Wunderground v.1.13,2013-12-18 14:00:00,
2013-12-18 09:06:00,58.0,53.5,30.28,NNW,335,4.0,4.0,85,0.00,,,0.00,Wunderground v.1.13,2013-12-18 14:06:00,
2013-12-18 09:12:00,58.4,52.9,30.28,NNE,16,3.0,9.0,82,0.00,,,0.00,Wunderground v.1.13,2013-12-18 14:12:00,
2013-12-18 09:18:00,58.5,53.0,30.29,NNE,22,4.0,4.0,82,0.00,,,0.00,Wunderground v.1.13,2013-12-18 14:18:00,
2013-12-18 09:24:00,59.0,53.2,30.29,NE,44,4.0,7.0,81,0.00,,,0.00,Wunderground v.1.13,2013-12-18 14:24:00,
2013-12-18 09:30:00,59.5,50.8,30.29,NE,46,4.0,7.0,73,0.00,,,0.00,Wunderground v.1.13,2013-12-18 14:30:00,
2013-12-18 09:36:00,59.6,49.8,30.29,NNW,343,5.0,7.0,70,0.00,,,0.00,Wunderground v.1.13,2013-12-18 14:36:00,
2013-12-18 09:42:00,60.0,49.8,30.29,NNE,24,5.0,5.0,69,0.00,,,0.00,Wunderground v.1.13,2013-12-18 14:42:00,
2013-12-18 09:48:00,60.5,49.9,30.30,NNW,342,5.0,7.0,68,0.00,,,0.00,Wunderground v.1.13,2013-12-18 14:48:00,
2013-12-18 09:54:00,60.7,48.4,30.30,NE,54,6.0,10.0,64,0.00,,,0.00,Wunderground v.1.13,2013-12-18 14:54:00,
2013-12-18 10:00:00,61.1,48.8,30.29,NE,35,6.0,6.0,64,0.00,,,0.00,Wunderground v.1.13,2013-12-18 15:00:00,
2013-12-18 10:06:00,61.4,48.7,30.29,NNE,15,6.0,7.0,63,0.00,,,0.00,Wunderground v.1.13,2013-12-18 15:06:00,
2013-12-18 10:12:00,61.7,48.1,30.29,NE,55,5.0,5.0,61,0.00,,,0.00,Wunderground v.1.13,2013-12-18 15:12:00,
2013-12-18 10:18:00,61.8,47.8,30.30,NNE,27,6.0,6.0,60,0.00,,,0.00,Wunderground v.1.13,2013-12-18 15:18:00,
2013-12-18 10:24:00,62.2,48.1,30.30,NNE,28,6.0,12.0,60,0.00,,,0.00,Wunderground v.1.13,2013-12-18 15:24:00,
2013-12-18 10:30:00,62.7,48.2,30.30,NE,36,6.0,12.0,59,0.00,,,0.00,Wunderground v.1.13,2013-12-18 15:30:00,
2013-12-18 10:36:00,63.1,47.1,30.30,NE,47,6.0,6.0,56,0.00,,,0.00,Wunderground v.1.13,2013-12-18 15:36:00,
2013-12-18 10:42:00,63.4,46.5,30.30,NNE,24,6.0,12.0,54,0.00,,,0.00,Wunderground v.1.13,2013-12-18 15:42:00,
2013-12-18 10:48:00,63.6,47.1,30.30,NE,44,6.0,6.0,55,0.00,,,0.00,Wunderground v.1.13,2013-12-18 15:48:00,
2013-12-18 10:54:00,64.0,46.5,30.29,North,355,5.0,12.0,53,0.00,,,0.00,Wunderground v.1.13,2013-12-18 15:54:00,
2013-12-18 11:00:00,64.3,45.8,30.29,NNW,329,5.0,5.0,51,0.00,,,0.00,Wunderground v.1.13,2013-12-18 16:00:00,
2013-12-18 11:06:00,64.7,45.1,30.29,ENE,59,5.0,5.0,49,0.00,,,0.00,Wunderground v.1.13,2013-12-18 16:06:00,
2013-12-18 11:12:00,65.1,44.9,30.29,NNE,24,6.0,7.0,48,0.00,,,0.00,Wunderground v.1.13,2013-12-18 16:12:00,
2013-12-18 11:18:00,65.3,45.1,30.29,NE,45,6.0,6.0,48,0.00,,,0.00,Wunderground v.1.13,2013-12-18 16:18:00,
2013-12-18 11:24:00,65.9,44.5,30.28,NE,45,5.0,11.0,46,0.00,,,0.00,Wunderground v.1.13,2013-12-18 16:24:00,
2013-12-18 11:30:00,66.2,44.8,30.28,NNE,16,5.0,11.0,46,0.00,,,0.00,Wunderground v.1.13,2013-12-18 16:30:00,
2013-12-18 11:36:00,66.2,44.8,30.28,NE,42,5.0,11.0,46,0.00,,,0.00,Wunderground v.1.13,2013-12-18 16:36:00,
2013-12-18 11:42:00,66.7,44.7,30.28,ENE,57,5.0,11.0,45,0.00,,,0.00,Wunderground v.1.13,2013-12-18 16:42:00,
2013-12-18 11:48:00,66.8,44.8,30.28,NNW,342,5.0,5.0,45,0.00,,,0.00,Wunderground v.1.13,2013-12-18 16:48:00,
2013-12-18 11:54:00,66.4,44.4,30.27,NNE,30,5.0,11.0,45,0.00,,,0.00,Wunderground v.1.13,2013-12-18 16:54:00,
2013-12-18 12:00:00,66.6,43.4,30.27,NNE,31,6.0,6.0,43,0.00,,,0.00,Wunderground v.1.13,2013-12-18 17:00:00,
2013-12-18 12:06:00,66.7,44.1,30.27,North,5,5.0,5.0,44,0.00,,,0.00,Wunderground v.1.13,2013-12-18 17:06:00,
2013-12-18 12:12:00,66.6,44.6,30.27,NNE,15,5.0,5.0,45,0.00,,,0.00,Wunderground v.1.13,2013-12-18 17:12:00,
2013-12-18 12:18:00,67.0,44.4,30.27,NE,34,4.0,11.0,44,0.00,,,0.00,Wunderground v.1.13,2013-12-18 17:18:00,
2013-12-18 12:24:00,67.2,45.7,30.26,NNE,17,4.0,11.0,46,0.00,,,0.00,Wunderground v.1.13,2013-12-18 17:24:00,
2013-12-18 12:30:00,67.6,44.9,30.26,NE,39,4.0,11.0,44,0.00,,,0.00,Wunderground v.1.13,2013-12-18 17:30:00,
2013-12-18 12:36:00,67.7,45.0,30.26,ENE,57,4.0,11.0,44,0.00,,,0.00,Wunderground v.1.13,2013-12-18 17:36:00,
2013-12-18 12:42:00,67.9,45.8,30.26,NNE,19,4.0,4.0,45,0.00,,,0.00,Wunderground v.1.13,2013-12-18 17:42:00,
2013-12-18 12:48:00,68.1,44.1,30.25,NE,36,4.0,11.0,42,0.00,,,0.00,Wunderground v.1.13,2013-12-18 17:48:00,
2013-12-18 12:54:00,68.1,45.4,30.24,NNE,18,4.0,11.0,44,0.00,,,0.00,Wunderground v.1.13,2013-12-18 17:54:00,
2013-12-18 13:00:00,68.2,44.8,30.24,NNW,339,4.0,11.0,43,0.00,,,0.00,Wunderground v.1.13,2013-12-18 18:00:00,
2013-12-18 13:06:00,68.1,44.7,30.24,ENE,59,4.0,4.0,43,0.00,,,0.00,Wunderground v.1.13,2013-12-18 18:06:00,
2013-12-18 13:12:00,68.2,44.8,30.24,NE,40,4.0,7.0,43,0.00,,,0.00,Wunderground v.1.13,2013-12-18 18:12:00,
2013-12-18 13:18:00,68.6,44.6,30.24,North,360,4.0,9.0,42,0.00,,,0.00,Wunderground v.1.13,2013-12-18 18:18:00,
2013-12-18 13:24:00,68.7,44.0,30.23,North,355,4.0,9.0,41,0.00,,,0.00,Wunderground v.1.13,2013-12-18 18:24:00,
2013-12-18 13:30:00,68.8,44.1,30.23,NNW,338,4.0,9.0,41,0.00,,,0.00,Wunderground v.1.13,2013-12-18 18:30:00,
2013-12-18 13:36:00,68.7,44.7,30.22,North,355,3.0,3.0,42,0.00,,,0.00,Wunderground v.1.13,2013-12-18 18:36:00,
2013-12-18 13:42:00,69.3,44.6,30.22,NE,41,3.0,9.0,41,0.00,,,0.00,Wunderground v.1.13,2013-12-18 18:42:00,
2013-12-18 13:48:00,69.5,44.8,30.22,ENE,63,3.0,9.0,41,0.00,,,0.00,Wunderground v.1.13,2013-12-18 18:48:00,
2013-12-18 13:54:00,69.9,45.1,30.22,NNW,338,4.0,4.0,41,0.00,,,0.00,Wunderground v.1.13,2013-12-18 18:54:00,
2013-12-18 14:00:00,69.7,44.3,30.22,NNE,22,4.0,4.0,40,0.00,,,0.00,Wunderground v.1.13,2013-12-18 19:00:00,
2013-12-18 14:06:00,69.6,44.2,30.22,North,9,4.0,4.0,40,0.00,,,0.00,Wunderground v.1.13,2013-12-18 19:06:00,
2013-12-18 14:12:00,69.6,44.2,30.21,NNE,21,4.0,4.0,40,0.00,,,0.00,Wunderground v.1.13,2013-12-18 19:12:00,
2013-12-18 14:18:00,69.7,44.3,30.21,North,9,4.0,4.0,40,0.00,,,0.00,Wunderground v.1.13,2013-12-18 19:18:00,
2013-12-18 14:24:00,70.1,44.0,30.21,ENE,57,3.0,6.0,39,0.00,,,0.00,Wunderground v.1.13,2013-12-18 19:24:00,
2013-12-18 14:30:00,70.1,45.3,30.21,NE,51,4.0,6.0,41,0.00,,,0.00,Wunderground v.1.13,2013-12-18 19:30:00,
2013-12-18 14:36:00,70.4,44.3,30.21,ENE,71,3.0,6.0,39,0.00,,,0.00,Wunderground v.1.13,2013-12-18 19:36:00,
2013-12-18 14:42:00,70.1,44.6,30.21,NE,52,4.0,4.0,40,0.00,,,0.00,Wunderground v.1.13,2013-12-18 19:42:00,
2013-12-18 14:48:00,70.3,45.5,30.22,ENE,65,4.0,6.0,41,0.00,,,0.00,Wunderground v.1.13,2013-12-18 19:48:00,
2013-12-18 14:54:00,70.4,44.9,30.21,NE,36,4.0,6.0,40,0.00,,,0.00,Wunderground v.1.13,2013-12-18 19:54:00,
2013-12-18 15:00:00,70.1,44.6,30.21,ENE,65,5.0,6.0,40,0.00,,,0.00,Wunderground v.1.13,2013-12-18 20:00:00,
2013-12-18 15:06:00,70.2,46.0,30.22,NNE,26,5.0,5.0,42,0.00,,,0.00,Wunderground v.1.13,2013-12-18 20:06:00,
2013-12-18 15:12:00,70.2,46.0,30.21,ENE,76,4.0,4.0,42,0.00,,,0.00,Wunderground v.1.13,2013-12-18 20:12:00,
2013-12-18 15:18:00,70.5,45.0,30.21,NE,44,3.0,9.0,40,0.00,,,0.00,Wunderground v.1.13,2013-12-18 20:18:00,
2013-12-18 15:24:00,70.7,45.2,30.21,North,10,3.0,3.0,40,0.00,,,0.00,Wunderground v.1.13,2013-12-18 20:24:00,
2013-12-18 15:30:00,70.6,45.1,30.21,NE,40,3.0,9.0,40,0.00,,,0.00,Wunderground v.1.13,2013-12-18 20:30:00,
2013-12-18 15:36:00,70.6,45.1,30.21,NE,46,4.0,4.0,40,0.00,,,0.00,Wunderground v.1.13,2013-12-18 20:36:00,
2013-12-18 15:42:00,70.8,45.9,30.21,ENE,67,4.0,4.0,41,0.00,,,0.00,Wunderground v.1.13,2013-12-18 20:42:00,
2013-12-18 15:48:00,70.9,46.7,30.21,ENE,57,4.0,9.0,42,0.00,,,0.00,Wunderground v.1.13,2013-12-18 20:48:00,
2013-12-18 15:54:00,70.7,46.5,30.21,NNE,27,3.0,9.0,42,0.00,,,0.00,Wunderground v.1.13,2013-12-18 20:54:00,
2013-12-18 16:00:00,70.5,46.3,30.21,NNE,16,3.0,9.0,42,0.00,,,0.00,Wunderground v.1.13,2013-12-18 21:00:00,
2013-12-18 16:06:00,70.3,46.7,30.21,NNE,29,3.0,4.0,43,0.00,,,0.00,Wunderground v.1.13,2013-12-18 21:06:00,
2013-12-18 16:12:00,70.2,47.9,30.21,NNE,19,3.0,4.0,45,0.00,,,0.00,Wunderground v.1.13,2013-12-18 21:12:00,
2013-12-18 16:18:00,70.1,47.8,30.21,NE,34,3.0,7.0,45,0.00,,,0.00,Wunderground v.1.13,2013-12-18 21:18:00,
2013-12-18 16:24:00,70.0,50.0,30.22,North,10,3.0,3.0,49,0.00,,,0.00,Wunderground v.1.13,2013-12-18 21:24:00,
2013-12-18 16:30:00,69.7,52.3,30.22,NW,313,3.0,7.0,54,0.00,,,0.00,Wunderground v.1.13,2013-12-18 21:30:00,
2013-12-18 16:36:00,69.5,52.1,30.22,NW,315,3.0,3.0,54,0.00,,,0.00,Wunderground v.1.13,2013-12-18 21:36:00,
2013-12-18 16:42:00,69.4,52.0,30.22,NNW,332,2.0,7.0,54,0.00,,,0.00,Wunderground v.1.13,2013-12-18 21:42:00,
2013-12-18 16:48:00,69.1,51.8,30.22,NNW,333,3.0,7.0,54,0.00,,,0.00,Wunderground v.1.13,2013-12-18 21:48:00,
2013-12-18 16:54:00,68.8,52.0,30.22,NW,325,4.0,4.0,55,0.00,,,0.00,Wunderground v.1.13,2013-12-18 21:54:00,
2013-12-18 17:00:00,68.6,52.3,30.22,NNW,333,3.0,3.0,56,0.00,,,0.00,Wunderground v.1.13,2013-12-18 22:00:00,
2013-12-18 17:06:00,68.3,51.5,30.22,NNW,333,3.0,3.0,55,0.00,,,0.00,Wunderground v.1.13,2013-12-18 22:06:00,
2013-12-18 17:12:00,68.0,51.7,30.22,NNW,335,2.0,3.0,56,0.00,,,0.00,Wunderground v.1.13,2013-12-18 22:12:00,
2013-12-18 17:18:00,67.5,51.2,30.22,NNW,333,2.0,7.0,56,0.00,,,0.00,Wunderground v.1.13,2013-12-18 22:18:00,
2013-12-18 17:24:00,67.1,51.4,30.22,NNW,327,3.0,7.0,57,0.00,,,0.00,Wunderground v.1.13,2013-12-18 22:24:00,
2013-12-18 17:30:00,66.7,51.5,30.23,NW,325,3.0,3.0,58,0.00,,,0.00,Wunderground v.1.13,2013-12-18 22:30:00,
2013-12-18 17:36:00,66.3,51.1,30.22,NNW,334,2.0,7.0,58,0.00,,,0.00,Wunderground v.1.13,2013-12-18 22:36:00,
2013-12-18 17:42:00,65.8,51.5,30.22,NNW,335,2.0,2.0,60,0.00,,,0.00,Wunderground v.1.13,2013-12-18 22:42:00,
2013-12-18 17:48:00,65.4,52.0,30.22,NNW,335,1.0,7.0,62,0.00,,,0.00,Wunderground v.1.13,2013-12-18 22:48:00,
2013-12-18 17:54:00,64.9,51.6,30.22,NNW,340,2.0,7.0,62,0.00,,,0.00,Wunderground v.1.13,2013-12-18 22:54:00,
2013-12-18 18:00:00,64.5,51.6,30.22,NNW,340,2.0,2.0,63,0.00,,,0.00,Wunderground v.1.13,2013-12-18 23:00:00,
2013-12-18 18:06:00,64.2,51.3,30.22,NNW,336,2.0,2.0,63,0.00,,,0.00,Wunderground v.1.13,2013-12-18 23:06:00,
2013-12-18 18:12:00,63.9,51.5,30.23,NNW,338,2.0,2.0,64,0.00,,,0.00,Wunderground v.1.13,2013-12-18 23:12:00,
2013-12-18 18:18:00,63.6,51.2,30.23,NW,323,2.0,3.0,64,0.00,,,0.00,Wunderground v.1.13,2013-12-18 23:18:00,
2013-12-18 18:24:00,63.4,51.4,30.23,NNW,333,2.0,2.0,65,0.00,,,0.00,Wunderground v.1.13,2013-12-18 23:24:00,
2013-12-18 18:30:00,63.3,51.3,30.23,NNW,330,3.0,3.0,65,0.00,,,0.00,Wunderground v.1.13,2013-12-18 23:30:00,
2013-12-18 18:36:00,63.1,51.6,30.23,NNW,330,2.0,3.0,66,0.00,,,0.00,Wunderground v.1.13,2013-12-18 23:36:00,
2013-12-18 18:42:00,62.9,51.8,30.23,NNW,336,1.0,3.0,67,0.00,,,0.00,Wunderground v.1.13,2013-12-18 23:42:00,
2013-12-18 18:48:00,62.7,51.6,30.23,NNW,336,1.0,3.0,67,0.00,,,0.00,Wunderground v.1.13,2013-12-18 23:48:00,
2013-12-18 18:54:00,62.4,51.7,30.23,NNW,336,1.0,3.0,68,0.00,,,0.00,Wunderground v.1.13,2013-12-18 23:54:00,
2013-12-18 19:00:00,62.1,51.8,30.23,NNW,336,1.0,1.0,69,0.00,,,0.00,Wunderground v.1.13,2013-12-19 00:00:00,
2013-12-18 19:06:00,61.8,51.9,30.23,NNW,336,1.0,1.0,70,0.00,,,0.00,Wunderground v.1.13,2013-12-19 00:06:00,
2013-12-18 19:12:00,61.5,51.6,30.23,NNW,336,1.0,1.0,70,0.00,,,0.00,Wunderground v.1.13,2013-12-19 00:12:00,
2013-12-18 19:18:00,61.3,51.8,30.23,NNW,336,1.0,3.0,71,0.00,,,0.00,Wunderground v.1.13,2013-12-19 00:18:00,
2013-12-18 19:24:00,61.0,51.9,30.23,NNW,336,1.0,1.0,72,0.00,,,0.00,Wunderground v.1.13,2013-12-19 00:24:00,
2013-12-18 19:30:00,60.7,52.0,30.23,NNW,336,0.0,3.0,73,0.00,,,0.00,Wunderground v.1.13,2013-12-19 00:30:00,
2013-12-18 19:36:00,60.4,51.7,30.24,NNW,336,0.0,3.0,73,0.00,,,0.00,Wunderground v.1.13,2013-12-19 00:36:00,
2013-12-18 19:42:00,60.2,51.9,30.24,NNW,336,0.0,3.0,74,0.00,,,0.00,Wunderground v.1.13,2013-12-19 00:42:00,
2013-12-18 19:48:00,60.0,52.1,30.24,NNW,336,0.0,3.0,75,0.00,,,0.00,Wunderground v.1.13,2013-12-19 00:48:00,
2013-12-18 19:54:00,59.9,52.0,30.24,NNW,336,0.0,3.0,75,0.00,,,0.00,Wunderground v.1.13,2013-12-19 00:54:00,
2013-12-18 20:00:00,59.7,52.1,30.24,NNW,336,0.0,3.0,76,0.00,,,0.00,Wunderground v.1.13,2013-12-19 01:00:00,
2013-12-18 20:06:00,59.4,52.2,30.24,NNW,336,0.0,0.0,77,0.00,,,0.00,Wunderground v.1.13,2013-12-19 01:06:00,
2013-12-18 20:12:00,59.1,52.2,30.24,NNW,336,0.0,0.0,78,0.00,,,0.00,Wunderground v.1.13,2013-12-19 01:12:00,
2013-12-18 20:18:00,58.7,52.2,30.24,NNW,336,0.0,2.0,79,0.00,,,0.00,Wunderground v.1.13,2013-12-19 01:18:00,
2013-12-18 20:24:00,58.3,51.8,30.24,NNW,336,0.0,2.0,79,0.00,,,0.00,Wunderground v.1.13,2013-12-19 01:24:00,
2013-12-18 20:30:00,58.0,51.9,30.24,NNW,336,0.0,2.0,80,0.00,,,0.00,Wunderground v.1.13,2013-12-19 01:30:00,
2013-12-18 20:36:00,57.7,51.9,30.24,NNW,336,0.0,2.0,81,0.00,,,0.00,Wunderground v.1.13,2013-12-19 01:36:00,
2013-12-18 20:42:00,57.5,52.0,30.25,NNW,336,0.0,2.0,82,0.00,,,0.00,Wunderground v.1.13,2013-12-19 01:42:00,
2013-12-18 20:48:00,57.3,52.2,30.25,NNW,336,0.0,2.0,83,0.00,,,0.00,Wunderground v.1.13,2013-12-19 01:48:00,
2013-12-18 20:54:00,57.2,52.1,30.25,NNW,336,0.0,2.0,83,0.00,,,0.00,Wunderground v.1.13,2013-12-19 01:54:00,
2013-12-18 21:00:00,57.3,51.9,30.25,NNW,336,0.0,2.0,82,0.00,,,0.00,Wunderground v.1.13,2013-12-19 02:00:00,
2013-12-18 21:06:00,57.2,51.8,30.25,NNW,336,0.0,0.0,82,0.00,,,0.00,Wunderground v.1.13,2013-12-19 02:06:00,
2013-12-18 21:12:00,57.2,52.1,30.25,NNW,336,0.0,1.0,83,0.00,,,0.00,Wunderground v.1.13,2013-12-19 02:12:00,
2013-12-18 21:18:00,57.3,51.9,30.25,NNW,346,1.0,1.0,82,0.00,,,0.00,Wunderground v.1.13,2013-12-19 02:18:00,
2013-12-18 21:24:00,57.5,52.0,30.25,NNW,346,1.0,1.0,82,0.00,,,0.00,Wunderground v.1.13,2013-12-19 02:24:00,
2013-12-18 21:30:00,57.5,52.4,30.25,NNW,348,1.0,2.0,83,0.00,,,0.00,Wunderground v.1.13,2013-12-19 02:30:00,
2013-12-18 21:36:00,57.5,52.4,30.25,NNW,348,1.0,2.0,83,0.00,,,0.00,Wunderground v.1.13,2013-12-19 02:36:00,
2013-12-18 21:42:00,57.4,52.6,30.26,NNW,348,1.0,1.0,84,0.00,,,0.00,Wunderground v.1.13,2013-12-19 02:42:00,
2013-12-18 21:48:00,57.3,52.2,30.26,NNW,348,1.0,1.0,83,0.00,,,0.00,Wunderground v.1.13,2013-12-19 02:48:00,
2013-12-18 21:54:00,57.1,52.0,30.27,NNW,348,0.0,1.0,83,0.00,,,0.00,Wunderground v.1.13,2013-12-19 02:54:00,
2013-12-18 22:00:00,56.8,52.0,30.26,NNW,348,0.0,1.0,84,0.00,,,0.00,Wunderground v.1.13,2013-12-19 03:00:00,
2013-12-18 22:06:00,56.6,52.5,30.26,NNW,348,0.0,1.0,86,0.00,,,0.00,Wunderground v.1.13,2013-12-19 03:06:00,
2013-12-18 22:12:00,56.4,51.6,30.26,NNW,348,0.0,1.0,84,0.00,,,0.00,Wunderground v.1.13,2013-12-19 03:12:00,
2013-12-18 22:18:00,56.2,51.7,30.26,NNW,348,1.0,1.0,85,0.00,,,0.00,Wunderground v.1.13,2013-12-19 03:18:00,
2013-12-18 22:24:00,56.2,51.4,30.26,NNW,348,1.0,1.0,84,0.00,,,0.00,Wunderground v.1.13,2013-12-19 03:24:00,
2013-12-18 22:30:00,56.2,51.1,30.27,NNE,18,1.0,2.0,83,0.00,,,0.00,Wunderground v.1.13,2013-12-19 03:30:00,
2013-12-18 22:36:00,56.5,50.7,30.26,North,5,1.0,2.0,81,0.00,,,0.00,Wunderground v.1.13,2013-12-19 03:36:00,
2013-12-18 22:42:00,56.7,50.6,30.26,North,5,1.0,2.0,80,0.00,,,0.00,Wunderground v.1.13,2013-12-19 03:42:00,
2013-12-18 22:48:00,56.8,50.4,30.27,North,11,1.0,2.0,79,0.00,,,0.00,Wunderground v.1.13,2013-12-19 03:48:00,
2013-12-18 22:54:00,57.0,50.9,30.27,NNE,23,1.0,2.0,80,0.00,,,0.00,Wunderground v.1.13,2013-12-19 03:54:00,
2013-12-18 23:00:00,57.5,50.0,30.27,NE,39,2.0,6.0,76,0.00,,,0.00,Wunderground v.1.13,2013-12-19 04:00:00,
2013-12-18 23:06:00,58.2,49.6,30.27,ENE,59,3.0,3.0,73,0.00,,,0.00,Wunderground v.1.13,2013-12-19 04:06:00,
2013-12-18 23:12:00,58.5,48.4,30.27,NE,49,4.0,4.0,69,0.00,,,0.00,Wunderground v.1.13,2013-12-19 04:12:00,
2013-12-18 23:18:00,58.4,48.3,30.27,ENE,69,4.0,4.0,69,0.00,,,0.00,Wunderground v.1.13,2013-12-19 04:18:00,
2013-12-18 23:24:00,58.2,47.7,30.27,NE,43,3.0,4.0,68,0.00,,,0.00,Wunderground v.1.13,2013-12-19 04:24:00,
2013-12-18 23:30:00,58.3,48.2,30.27,NE,48,4.0,4.0,69,0.00,,,0.00,Wunderground v.1.13,2013-12-19 04:30:00,
2013-12-18 23:36:00,58.4,48.3,30.27,NE,41,4.0,4.0,69,0.00,,,0.00,Wunderground v.1.13,2013-12-19 04:36:00,
2013-12-18 23:42:00,58.3,48.6,30.27,NE,46,4.0,9.0,70,0.00,,,0.00,Wunderground v.1.13,2013-12-19 04:42:00,
2013-12-18 23:48:00,58.2,48.8,30.27,East,79,4.0,4.0,71,0.00,,,0.00,Wunderground v.1.13,2013-12-19 04:48:00,
2013-12-18 23:54:00,58.1,49.1,30.27,ENE,78,3.0,5.0,72,0.00,,,0.00,Wunderground v.1.13,2013-12-19 04:54:00,